sensor_id;sensor_type;location;lat;lon;timestamp;P1;durP1;ratioP1;P2;durP2;ratioP2
47053;SDS011;32811;52.382;5.270;2023-07-31T00:01:31;1.92;;;0.77;;
47053;SDS011;32811;52.382;5.270;2023-07-31T00:03:58;0.40;;;0.30;;
47053;SDS011;32811;52.382;5.270;2023-07-31T00:06:25;3.22;;;0.40;;
47053;SDS011;32811;52.382;5.270;2023-07-31T00:08:51;0.60;;;0.38;;
47053;SDS011;32811;52.382;5.270;2023-07-31T00:11:18;0.45;;;0.25;;
47053;SDS011;32811;52.382;5.270;2023-07-31T00:13:45;0.73;;;0.32;;
47053;SDS011;32811;52.382;5.270;2023-07-31T00:16:11;1.05;;;0.50;;
47053;SDS011;32811;52.382;5.270;2023-07-31T00:18:38;2.03;;;0.60;;
47053;SDS011;32811;52.382;5.270;2023-07-31T00:21:05;1.55;;;0.70;;
47053;SDS011;32811;52.382;5.270;2023-07-31T00:23:31;2.45;;;0.50;;
47053;SDS011;32811;52.382;5.270;2023-07-31T00:25:58;1.88;;;0.77;;
47053;SDS011;32811;52.382;5.270;2023-07-31T00:28:24;4.60;;;0.82;;
47053;SDS011;32811;52.382;5.270;2023-07-31T00:30:51;5.63;;;1.00;;
47053;SDS011;32811;52.382;5.270;2023-07-31T00:33:18;4.15;;;0.95;;
47053;SDS011;32811;52.382;5.270;2023-07-31T00:35:45;3.95;;;0.80;;
47053;SDS011;32811;52.382;5.270;2023-07-31T00:38:11;6.68;;;1.35;;
47053;SDS011;32811;52.382;5.270;2023-07-31T00:40:38;4.30;;;1.50;;
47053;SDS011;32811;52.382;5.270;2023-07-31T00:43:04;9.05;;;2.38;;
47053;SDS011;32811;52.382;5.270;2023-07-31T00:45:31;7.03;;;1.58;;
47053;SDS011;32811;52.382;5.270;2023-07-31T00:47:59;6.55;;;1.35;;
47053;SDS011;32811;52.382;5.270;2023-07-31T00:50:26;3.03;;;1.27;;
47053;SDS011;32811;52.382;5.270;2023-07-31T00:52:54;5.68;;;2.35;;
47053;SDS011;32811;52.382;5.270;2023-07-31T00:55:21;6.80;;;2.25;;
47053;SDS011;32811;52.382;5.270;2023-07-31T00:57:48;3.85;;;1.35;;
47053;SDS011;32811;52.382;5.270;2023-07-31T01:00:16;7.05;;;1.52;;
47053;SDS011;32811;52.382;5.270;2023-07-31T01:02:43;7.60;;;1.63;;
47053;SDS011;32811;52.382;5.270;2023-07-31T01:05:10;8.50;;;1.40;;
47053;SDS011;32811;52.382;5.270;2023-07-31T01:10:23;5.22;;;1.50;;
47053;SDS011;32811;52.382;5.270;2023-07-31T01:12:54;4.50;;;1.52;;
47053;SDS011;32811;52.382;5.270;2023-07-31T01:15:24;5.10;;;1.98;;
47053;SDS011;32811;52.382;5.270;2023-07-31T01:17:50;7.72;;;2.10;;
47053;SDS011;32811;52.382;5.270;2023-07-31T01:20:18;5.88;;;1.42;;
47053;SDS011;32811;52.382;5.270;2023-07-31T01:28:04;8.32;;;2.00;;
47053;SDS011;32811;52.382;5.270;2023-07-31T01:30:34;4.78;;;2.05;;
47053;SDS011;32811;52.382;5.270;2023-07-31T01:33:07;7.63;;;2.20;;
47053;SDS011;32811;52.382;5.270;2023-07-31T01:35:35;10.00;;;2.83;;
47053;SDS011;32811;52.382;5.270;2023-07-31T01:38:03;11.65;;;2.30;;
47053;SDS011;32811;52.382;5.270;2023-07-31T01:40:31;7.65;;;3.33;;
47053;SDS011;32811;52.382;5.270;2023-07-31T01:42:58;8.60;;;2.75;;
47053;SDS011;32811;52.382;5.270;2023-07-31T01:45:24;12.45;;;2.90;;
47053;SDS011;32811;52.382;5.270;2023-07-31T01:47:51;15.70;;;3.30;;
47053;SDS011;32811;52.382;5.270;2023-07-31T01:50:17;11.13;;;3.40;;
47053;SDS011;32811;52.382;5.270;2023-07-31T01:52:44;8.40;;;2.75;;
47053;SDS011;32811;52.382;5.270;2023-07-31T01:55:11;9.38;;;2.42;;
47053;SDS011;32811;52.382;5.270;2023-07-31T01:57:37;9.13;;;2.97;;
47053;SDS011;32811;52.382;5.270;2023-07-31T02:00:04;7.28;;;2.47;;
47053;SDS011;32811;52.382;5.270;2023-07-31T02:02:31;8.18;;;2.78;;
47053;SDS011;32811;52.382;5.270;2023-07-31T02:04:58;11.27;;;2.75;;
47053;SDS011;32811;52.382;5.270;2023-07-31T02:07:25;6.75;;;3.10;;
47053;SDS011;32811;52.382;5.270;2023-07-31T02:09:51;12.13;;;3.10;;
47053;SDS011;32811;52.382;5.270;2023-07-31T02:12:18;12.88;;;3.83;;
47053;SDS011;32811;52.382;5.270;2023-07-31T02:14:44;13.55;;;4.13;;
47053;SDS011;32811;52.382;5.270;2023-07-31T02:17:11;11.88;;;4.05;;
47053;SDS011;32811;52.382;5.270;2023-07-31T02:19:38;10.82;;;3.95;;
47053;SDS011;32811;52.382;5.270;2023-07-31T02:22:04;9.30;;;3.40;;
47053;SDS011;32811;52.382;5.270;2023-07-31T02:24:31;9.57;;;3.20;;
47053;SDS011;32811;52.382;5.270;2023-07-31T02:26:58;18.88;;;4.95;;
47053;SDS011;32811;52.382;5.270;2023-07-31T02:29:24;15.73;;;4.25;;
47053;SDS011;32811;52.382;5.270;2023-07-31T02:31:51;16.90;;;4.47;;
47053;SDS011;32811;52.382;5.270;2023-07-31T02:34:18;17.92;;;4.70;;
47053;SDS011;32811;52.382;5.270;2023-07-31T02:36:44;21.23;;;5.07;;
47053;SDS011;32811;52.382;5.270;2023-07-31T02:39:11;18.08;;;3.92;;
47053;SDS011;32811;52.382;5.270;2023-07-31T02:41:37;15.65;;;4.63;;
47053;SDS011;32811;52.382;5.270;2023-07-31T02:44:04;17.23;;;5.72;;
47053;SDS011;32811;52.382;5.270;2023-07-31T02:46:31;29.90;;;6.53;;
47053;SDS011;32811;52.382;5.270;2023-07-31T02:48:57;12.82;;;4.90;;
47053;SDS011;32811;52.382;5.270;2023-07-31T02:51:24;14.50;;;5.03;;
47053;SDS011;32811;52.382;5.270;2023-07-31T02:53:51;20.50;;;4.65;;
47053;SDS011;32811;52.382;5.270;2023-07-31T02:56:17;21.38;;;5.70;;
47053;SDS011;32811;52.382;5.270;2023-07-31T02:58:44;18.10;;;5.15;;
47053;SDS011;32811;52.382;5.270;2023-07-31T03:01:11;18.15;;;5.90;;
47053;SDS011;32811;52.382;5.270;2023-07-31T03:03:37;13.68;;;4.90;;
47053;SDS011;32811;52.382;5.270;2023-07-31T03:06:04;20.00;;;6.35;;
47053;SDS011;32811;52.382;5.270;2023-07-31T03:08:31;22.63;;;6.65;;
47053;SDS011;32811;52.382;5.270;2023-07-31T03:10:57;27.85;;;6.13;;
47053;SDS011;32811;52.382;5.270;2023-07-31T03:13:24;22.83;;;5.20;;
47053;SDS011;32811;52.382;5.270;2023-07-31T03:15:51;20.83;;;5.22;;
47053;SDS011;32811;52.382;5.270;2023-07-31T03:18:17;17.30;;;5.70;;
47053;SDS011;32811;52.382;5.270;2023-07-31T03:20:44;12.10;;;4.80;;
47053;SDS011;32811;52.382;5.270;2023-07-31T03:23:10;20.40;;;5.65;;
47053;SDS011;32811;52.382;5.270;2023-07-31T03:25:37;23.75;;;5.53;;
47053;SDS011;32811;52.382;5.270;2023-07-31T03:28:04;18.00;;;5.38;;
47053;SDS011;32811;52.382;5.270;2023-07-31T03:30:30;25.55;;;6.40;;
47053;SDS011;32811;52.382;5.270;2023-07-31T03:32:57;16.20;;;5.07;;
47053;SDS011;32811;52.382;5.270;2023-07-31T03:35:24;14.45;;;5.95;;
47053;SDS011;32811;52.382;5.270;2023-07-31T03:37:50;20.55;;;5.35;;
47053;SDS011;32811;52.382;5.270;2023-07-31T03:40:17;16.90;;;4.13;;
47053;SDS011;32811;52.382;5.270;2023-07-31T03:42:44;19.55;;;4.75;;
47053;SDS011;32811;52.382;5.270;2023-07-31T03:45:10;20.08;;;5.55;;
47053;SDS011;32811;52.382;5.270;2023-07-31T03:47:37;11.75;;;4.63;;
47053;SDS011;32811;52.382;5.270;2023-07-31T03:50:04;20.42;;;5.07;;
47053;SDS011;32811;52.382;5.270;2023-07-31T03:52:31;16.52;;;4.20;;
47053;SDS011;32811;52.382;5.270;2023-07-31T03:54:57;23.92;;;6.85;;
47053;SDS011;32811;52.382;5.270;2023-07-31T03:57:24;26.58;;;5.25;;
47053;SDS011;32811;52.382;5.270;2023-07-31T03:59:50;20.83;;;5.00;;
47053;SDS011;32811;52.382;5.270;2023-07-31T04:02:17;19.27;;;5.15;;
47053;SDS011;32811;52.382;5.270;2023-07-31T04:04:45;17.77;;;5.25;;
47053;SDS011;32811;52.382;5.270;2023-07-31T04:07:11;20.00;;;4.97;;
47053;SDS011;32811;52.382;5.270;2023-07-31T04:09:38;19.33;;;5.03;;
47053;SDS011;32811;52.382;5.270;2023-07-31T04:12:05;21.42;;;5.45;;
47053;SDS011;32811;52.382;5.270;2023-07-31T04:14:31;20.85;;;5.85;;
47053;SDS011;32811;52.382;5.270;2023-07-31T04:16:58;20.63;;;5.00;;
47053;SDS011;32811;52.382;5.270;2023-07-31T04:19:25;25.88;;;5.53;;
47053;SDS011;32811;52.382;5.270;2023-07-31T04:21:51;22.77;;;5.15;;
47053;SDS011;32811;52.382;5.270;2023-07-31T04:24:18;29.15;;;5.78;;
47053;SDS011;32811;52.382;5.270;2023-07-31T04:26:50;20.83;;;5.78;;
47053;SDS011;32811;52.382;5.270;2023-07-31T04:29:18;19.27;;;4.95;;
47053;SDS011;32811;52.382;5.270;2023-07-31T04:31:45;14.60;;;4.13;;
47053;SDS011;32811;52.382;5.270;2023-07-31T04:34:12;18.20;;;5.30;;
47053;SDS011;32811;52.382;5.270;2023-07-31T04:36:39;19.30;;;5.13;;
47053;SDS011;32811;52.382;5.270;2023-07-31T04:39:06;24.13;;;5.90;;
47053;SDS011;32811;52.382;5.270;2023-07-31T04:41:32;18.00;;;5.00;;
47053;SDS011;32811;52.382;5.270;2023-07-31T04:43:59;17.33;;;5.78;;
47053;SDS011;32811;52.382;5.270;2023-07-31T04:46:25;17.25;;;4.70;;
47053;SDS011;32811;52.382;5.270;2023-07-31T04:48:52;22.70;;;5.40;;
47053;SDS011;32811;52.382;5.270;2023-07-31T04:51:19;20.38;;;5.68;;
47053;SDS011;32811;52.382;5.270;2023-07-31T04:53:47;17.92;;;4.32;;
47053;SDS011;32811;52.382;5.270;2023-07-31T04:56:13;21.13;;;5.43;;
47053;SDS011;32811;52.382;5.270;2023-07-31T04:58:41;21.42;;;5.43;;
47053;SDS011;32811;52.382;5.270;2023-07-31T05:01:08;15.35;;;4.05;;
47053;SDS011;32811;52.382;5.270;2023-07-31T05:03:35;18.38;;;6.18;;
47053;SDS011;32811;52.382;5.270;2023-07-31T05:06:01;18.13;;;6.10;;
47053;SDS011;32811;52.382;5.270;2023-07-31T05:08:28;17.27;;;5.20;;
47053;SDS011;32811;52.382;5.270;2023-07-31T05:10:55;11.73;;;3.95;;
47053;SDS011;32811;52.382;5.270;2023-07-31T05:13:21;12.38;;;4.40;;
47053;SDS011;32811;52.382;5.270;2023-07-31T05:15:48;12.10;;;3.47;;
47053;SDS011;32811;52.382;5.270;2023-07-31T05:18:15;9.57;;;3.30;;
47053;SDS011;32811;52.382;5.270;2023-07-31T05:20:42;11.15;;;3.72;;
47053;SDS011;32811;52.382;5.270;2023-07-31T05:23:09;13.82;;;3.03;;
47053;SDS011;32811;52.382;5.270;2023-07-31T05:25:35;15.40;;;3.70;;
47053;SDS011;32811;52.382;5.270;2023-07-31T05:28:02;9.30;;;2.58;;
47053;SDS011;32811;52.382;5.270;2023-07-31T05:30:32;5.45;;;2.17;;
47053;SDS011;32811;52.382;5.270;2023-07-31T05:32:58;4.32;;;2.20;;
47053;SDS011;32811;52.382;5.270;2023-07-31T05:35:25;6.25;;;1.73;;
47053;SDS011;32811;52.382;5.270;2023-07-31T05:37:52;5.65;;;1.80;;
47053;SDS011;32811;52.382;5.270;2023-07-31T05:40:18;5.47;;;1.52;;
47053;SDS011;32811;52.382;5.270;2023-07-31T05:42:45;4.35;;;1.77;;
47053;SDS011;32811;52.382;5.270;2023-07-31T05:45:12;3.38;;;1.40;;
47053;SDS011;32811;52.382;5.270;2023-07-31T05:47:39;3.03;;;1.58;;
47053;SDS011;32811;52.382;5.270;2023-07-31T05:50:06;3.50;;;1.27;;
47053;SDS011;32811;52.382;5.270;2023-07-31T05:52:33;3.80;;;1.90;;
47053;SDS011;32811;52.382;5.270;2023-07-31T05:55:00;2.33;;;1.30;;
47053;SDS011;32811;52.382;5.270;2023-07-31T05:57:27;4.15;;;1.20;;
47053;SDS011;32811;52.382;5.270;2023-07-31T05:59:54;2.63;;;1.33;;
47053;SDS011;32811;52.382;5.270;2023-07-31T06:02:21;3.45;;;1.20;;
47053;SDS011;32811;52.382;5.270;2023-07-31T06:04:47;6.53;;;0.90;;
47053;SDS011;32811;52.382;5.270;2023-07-31T06:07:14;3.40;;;1.33;;
47053;SDS011;32811;52.382;5.270;2023-07-31T06:09:41;5.07;;;1.00;;
47053;SDS011;32811;52.382;5.270;2023-07-31T06:12:07;1.20;;;0.88;;
47053;SDS011;32811;52.382;5.270;2023-07-31T06:14:35;2.45;;;1.10;;
47053;SDS011;32811;52.382;5.270;2023-07-31T06:17:01;2.80;;;1.08;;
47053;SDS011;32811;52.382;5.270;2023-07-31T06:19:28;3.05;;;1.00;;
47053;SDS011;32811;52.382;5.270;2023-07-31T06:21:54;8.48;;;1.27;;
47053;SDS011;32811;52.382;5.270;2023-07-31T06:24:21;2.95;;;0.95;;
47053;SDS011;32811;52.382;5.270;2023-07-31T06:26:48;2.70;;;0.90;;
47053;SDS011;32811;52.382;5.270;2023-07-31T06:29:15;3.83;;;1.00;;
47053;SDS011;32811;52.382;5.270;2023-07-31T06:31:41;3.00;;;0.85;;
47053;SDS011;32811;52.382;5.270;2023-07-31T06:34:08;2.83;;;1.00;;
47053;SDS011;32811;52.382;5.270;2023-07-31T06:36:35;2.75;;;0.80;;
47053;SDS011;32811;52.382;5.270;2023-07-31T06:39:01;2.20;;;0.82;;
47053;SDS011;32811;52.382;5.270;2023-07-31T06:41:28;1.98;;;0.93;;
47053;SDS011;32811;52.382;5.270;2023-07-31T06:43:54;3.10;;;1.33;;
47053;SDS011;32811;52.382;5.270;2023-07-31T06:46:21;2.63;;;0.70;;
47053;SDS011;32811;52.382;5.270;2023-07-31T06:48:48;1.15;;;0.88;;
47053;SDS011;32811;52.382;5.270;2023-07-31T06:51:15;2.83;;;1.10;;
47053;SDS011;32811;52.382;5.270;2023-07-31T06:53:42;4.60;;;1.00;;
47053;SDS011;32811;52.382;5.270;2023-07-31T06:56:11;2.10;;;1.00;;
47053;SDS011;32811;52.382;5.270;2023-07-31T06:58:38;1.55;;;0.50;;
47053;SDS011;32811;52.382;5.270;2023-07-31T07:01:05;5.95;;;0.80;;
47053;SDS011;32811;52.382;5.270;2023-07-31T07:03:32;3.83;;;0.80;;
47053;SDS011;32811;52.382;5.270;2023-07-31T07:05:59;2.75;;;0.77;;
47053;SDS011;32811;52.382;5.270;2023-07-31T07:08:25;1.20;;;0.68;;
47053;SDS011;32811;52.382;5.270;2023-07-31T07:10:53;8.18;;;1.00;;
47053;SDS011;32811;52.382;5.270;2023-07-31T07:13:20;1.13;;;0.40;;
47053;SDS011;32811;52.382;5.270;2023-07-31T07:15:48;2.55;;;0.60;;
47053;SDS011;32811;52.382;5.270;2023-07-31T07:18:15;1.48;;;0.55;;
47053;SDS011;32811;52.382;5.270;2023-07-31T07:20:49;1.02;;;0.60;;
47053;SDS011;32811;52.382;5.270;2023-07-31T07:23:17;2.50;;;0.47;;
47053;SDS011;32811;52.382;5.270;2023-07-31T07:25:44;1.63;;;0.30;;
47053;SDS011;32811;52.382;5.270;2023-07-31T07:28:12;3.63;;;1.30;;
47053;SDS011;32811;52.382;5.270;2023-07-31T07:30:39;1.13;;;0.50;;
47053;SDS011;32811;52.382;5.270;2023-07-31T07:33:05;1.33;;;0.40;;
47053;SDS011;32811;52.382;5.270;2023-07-31T07:35:33;0.52;;;0.30;;
47053;SDS011;32811;52.382;5.270;2023-07-31T07:38:01;0.98;;;0.47;;
47053;SDS011;32811;52.382;5.270;2023-07-31T07:40:29;1.77;;;0.40;;
47053;SDS011;32811;52.382;5.270;2023-07-31T07:42:55;1.55;;;0.43;;
47053;SDS011;32811;52.382;5.270;2023-07-31T07:45:22;0.75;;;0.30;;
47053;SDS011;32811;52.382;5.270;2023-07-31T07:47:48;3.33;;;0.30;;
47053;SDS011;32811;52.382;5.270;2023-07-31T07:50:15;1.15;;;0.30;;
47053;SDS011;32811;52.382;5.270;2023-07-31T07:52:42;0.98;;;0.38;;
47053;SDS011;32811;52.382;5.270;2023-07-31T07:55:08;1.70;;;0.38;;
47053;SDS011;32811;52.382;5.270;2023-07-31T07:57:35;1.55;;;0.30;;
47053;SDS011;32811;52.382;5.270;2023-07-31T08:00:02;1.48;;;0.20;;
47053;SDS011;32811;52.382;5.270;2023-07-31T08:02:28;3.00;;;0.32;;
47053;SDS011;32811;52.382;5.270;2023-07-31T08:04:55;0.90;;;0.45;;
47053;SDS011;32811;52.382;5.270;2023-07-31T08:07:22;0.88;;;0.38;;
47053;SDS011;32811;52.382;5.270;2023-07-31T08:09:49;0.68;;;0.25;;
47053;SDS011;32811;52.382;5.270;2023-07-31T08:12:15;0.47;;;0.20;;
47053;SDS011;32811;52.382;5.270;2023-07-31T08:14:42;0.75;;;0.30;;
47053;SDS011;32811;52.382;5.270;2023-07-31T08:17:08;0.17;;;0.13;;
47053;SDS011;32811;52.382;5.270;2023-07-31T08:19:35;4.80;;;0.30;;
47053;SDS011;32811;52.382;5.270;2023-07-31T08:22:02;3.60;;;0.30;;
47053;SDS011;32811;52.382;5.270;2023-07-31T08:24:29;0.20;;;0.20;;
47053;SDS011;32811;52.382;5.270;2023-07-31T08:26:55;0.10;;;0.10;;
47053;SDS011;32811;52.382;5.270;2023-07-31T08:29:22;1.05;;;0.20;;
47053;SDS011;32811;52.382;5.270;2023-07-31T08:31:48;0.40;;;0.10;;
47053;SDS011;32811;52.382;5.270;2023-07-31T08:34:15;0.10;;;0.10;;
47053;SDS011;32811;52.382;5.270;2023-07-31T08:36:41;0.10;;;0.10;;
47053;SDS011;32811;52.382;5.270;2023-07-31T08:39:08;1.00;;;0.20;;
47053;SDS011;32811;52.382;5.270;2023-07-31T08:41:38;0.47;;;0.20;;
47053;SDS011;32811;52.382;5.270;2023-07-31T08:44:06;2.20;;;0.20;;
47053;SDS011;32811;52.382;5.270;2023-07-31T08:46:33;0.45;;;0.40;;
47053;SDS011;32811;52.382;5.270;2023-07-31T08:49:02;1.48;;;0.10;;
47053;SDS011;32811;52.382;5.270;2023-07-31T08:51:33;0.00;;;0.00;;
47053;SDS011;32811;52.382;5.270;2023-07-31T08:54:01;0.30;;;0.20;;
47053;SDS011;32811;52.382;5.270;2023-07-31T08:56:31;0.95;;;0.08;;
47053;SDS011;32811;52.382;5.270;2023-07-31T08:58:59;3.30;;;0.20;;
47053;SDS011;32811;52.382;5.270;2023-07-31T09:01:29;0.90;;;0.10;;
47053;SDS011;32811;52.382;5.270;2023-07-31T09:03:59;0.25;;;0.10;;
47053;SDS011;32811;52.382;5.270;2023-07-31T09:06:28;0.30;;;0.10;;
47053;SDS011;32811;52.382;5.270;2023-07-31T09:08:56;0.47;;;0.10;;
47053;SDS011;32811;52.382;5.270;2023-07-31T09:11:23;1.02;;;0.20;;
47053;SDS011;32811;52.382;5.270;2023-07-31T09:13:51;0.15;;;0.10;;
47053;SDS011;32811;52.382;5.270;2023-07-31T09:16:26;1.48;;;0.25;;
47053;SDS011;32811;52.382;5.270;2023-07-31T09:18:56;0.32;;;0.00;;
47053;SDS011;32811;52.382;5.270;2023-07-31T09:21:24;6.38;;;0.30;;
47053;SDS011;32811;52.382;5.270;2023-07-31T09:23:52;4.72;;;0.13;;
47053;SDS011;32811;52.382;5.270;2023-07-31T09:28:57;0.22;;;0.00;;
47053;SDS011;32811;52.382;5.270;2023-07-31T09:31:40;0.10;;;0.00;;
47053;SDS011;32811;52.382;5.270;2023-07-31T09:34:08;2.78;;;0.10;;
47053;SDS011;32811;52.382;5.270;2023-07-31T09:36:39;0.10;;;0.00;;
47053;SDS011;32811;52.382;5.270;2023-07-31T09:39:14;0.22;;;0.00;;
47053;SDS011;32811;52.382;5.270;2023-07-31T09:41:55;2.90;;;0.10;;
47053;SDS011;32811;52.382;5.270;2023-07-31T09:44:36;0.20;;;0.10;;
47053;SDS011;32811;52.382;5.270;2023-07-31T09:47:04;0.68;;;0.30;;
47053;SDS011;32811;52.382;5.270;2023-07-31T09:49:31;2.30;;;0.47;;
47053;SDS011;32811;52.382;5.270;2023-07-31T09:51:58;4.13;;;0.75;;
47053;SDS011;32811;52.382;5.270;2023-07-31T09:54:25;1.58;;;0.40;;
47053;SDS011;32811;52.382;5.270;2023-07-31T09:56:51;1.88;;;0.50;;
47053;SDS011;32811;52.382;5.270;2023-07-31T09:59:19;3.13;;;0.93;;
47053;SDS011;32811;52.382;5.270;2023-07-31T10:01:49;4.30;;;0.75;;
47053;SDS011;32811;52.382;5.270;2023-07-31T10:04:18;4.65;;;0.68;;
47053;SDS011;32811;52.382;5.270;2023-07-31T10:06:52;3.88;;;0.70;;
47053;SDS011;32811;52.382;5.270;2023-07-31T10:09:20;3.05;;;0.80;;
47053;SDS011;32811;52.382;5.270;2023-07-31T10:11:53;3.60;;;0.50;;
47053;SDS011;32811;52.382;5.270;2023-07-31T10:14:24;2.63;;;0.73;;
47053;SDS011;32811;52.382;5.270;2023-07-31T10:16:53;5.53;;;0.77;;
47053;SDS011;32811;52.382;5.270;2023-07-31T10:19:21;4.28;;;0.73;;
47053;SDS011;32811;52.382;5.270;2023-07-31T10:21:48;2.92;;;0.80;;
47053;SDS011;32811;52.382;5.270;2023-07-31T10:24:15;5.28;;;0.90;;
47053;SDS011;32811;52.382;5.270;2023-07-31T10:26:43;6.25;;;0.85;;
47053;SDS011;32811;52.382;5.270;2023-07-31T10:29:12;5.20;;;1.20;;
47053;SDS011;32811;52.382;5.270;2023-07-31T10:31:39;8.68;;;1.55;;
47053;SDS011;32811;52.382;5.270;2023-07-31T10:34:07;6.60;;;1.45;;
47053;SDS011;32811;52.382;5.270;2023-07-31T10:36:34;6.57;;;1.67;;
47053;SDS011;32811;52.382;5.270;2023-07-31T10:39:00;7.93;;;1.27;;
47053;SDS011;32811;52.382;5.270;2023-07-31T10:41:30;5.13;;;1.05;;
47053;SDS011;32811;52.382;5.270;2023-07-31T10:44:01;8.07;;;1.55;;
47053;SDS011;32811;52.382;5.270;2023-07-31T10:46:28;6.43;;;1.80;;
47053;SDS011;32811;52.382;5.270;2023-07-31T10:48:59;13.57;;;1.63;;
47053;SDS011;32811;52.382;5.270;2023-07-31T10:51:33;11.38;;;3.17;;
47053;SDS011;32811;52.382;5.270;2023-07-31T10:54:11;6.18;;;1.45;;
47053;SDS011;32811;52.382;5.270;2023-07-31T10:56:45;7.45;;;2.13;;
47053;SDS011;32811;52.382;5.270;2023-07-31T10:59:13;5.88;;;1.42;;
47053;SDS011;32811;52.382;5.270;2023-07-31T11:01:50;5.25;;;1.00;;
47053;SDS011;32811;52.382;5.270;2023-07-31T11:04:22;11.75;;;1.02;;
47053;SDS011;32811;52.382;5.270;2023-07-31T11:09:29;2.00;;;0.70;;
47053;SDS011;32811;52.382;5.270;2023-07-31T11:11:58;7.10;;;1.55;;
47053;SDS011;32811;52.382;5.270;2023-07-31T11:14:26;9.15;;;1.52;;
47053;SDS011;32811;52.382;5.270;2023-07-31T11:16:52;4.22;;;1.05;;
47053;SDS011;32811;52.382;5.270;2023-07-31T11:19:25;5.35;;;1.15;;
47053;SDS011;32811;52.382;5.270;2023-07-31T11:21:52;4.50;;;1.13;;
47053;SDS011;32811;52.382;5.270;2023-07-31T11:24:19;3.72;;;1.02;;
47053;SDS011;32811;52.382;5.270;2023-07-31T11:26:49;4.25;;;1.00;;
47053;SDS011;32811;52.382;5.270;2023-07-31T11:29:19;7.82;;;2.28;;
47053;SDS011;32811;52.382;5.270;2023-07-31T11:31:47;10.85;;;1.20;;
47053;SDS011;32811;52.382;5.270;2023-07-31T11:34:15;6.45;;;1.60;;
47053;SDS011;32811;52.382;5.270;2023-07-31T11:36:52;3.95;;;1.20;;
47053;SDS011;32811;52.382;5.270;2023-07-31T11:39:22;10.52;;;1.48;;
47053;SDS011;32811;52.382;5.270;2023-07-31T11:41:48;8.65;;;1.73;;
47053;SDS011;32811;52.382;5.270;2023-07-31T11:44:15;6.88;;;2.17;;
47053;SDS011;32811;52.382;5.270;2023-07-31T11:46:56;10.05;;;2.63;;
47053;SDS011;32811;52.382;5.270;2023-07-31T11:49:23;4.97;;;1.42;;
47053;SDS011;32811;52.382;5.270;2023-07-31T11:51:49;5.18;;;1.60;;
47053;SDS011;32811;52.382;5.270;2023-07-31T11:54:16;6.28;;;1.70;;
47053;SDS011;32811;52.382;5.270;2023-07-31T11:56:43;9.30;;;2.45;;
47053;SDS011;32811;52.382;5.270;2023-07-31T11:59:10;8.13;;;1.58;;
47053;SDS011;32811;52.382;5.270;2023-07-31T12:01:39;11.15;;;1.55;;
47053;SDS011;32811;52.382;5.270;2023-07-31T12:04:06;5.72;;;1.60;;
47053;SDS011;32811;52.382;5.270;2023-07-31T12:06:33;8.32;;;1.60;;
47053;SDS011;32811;52.382;5.270;2023-07-31T12:09:04;7.30;;;1.75;;
47053;SDS011;32811;52.382;5.270;2023-07-31T12:11:31;6.75;;;1.70;;
47053;SDS011;32811;52.382;5.270;2023-07-31T12:14:18;7.97;;;1.90;;
47053;SDS011;32811;52.382;5.270;2023-07-31T12:16:54;6.15;;;1.38;;
47053;SDS011;32811;52.382;5.270;2023-07-31T12:21:56;8.38;;;1.35;;
47053;SDS011;32811;52.382;5.270;2023-07-31T12:24:25;9.07;;;1.77;;
47053;SDS011;32811;52.382;5.270;2023-07-31T12:26:52;6.82;;;1.45;;
47053;SDS011;32811;52.382;5.270;2023-07-31T12:29:21;8.07;;;1.65;;
47053;SDS011;32811;52.382;5.270;2023-07-31T12:31:47;7.85;;;1.92;;
47053;SDS011;32811;52.382;5.270;2023-07-31T12:34:17;5.88;;;1.63;;
47053;SDS011;32811;52.382;5.270;2023-07-31T12:36:47;7.45;;;1.58;;
47053;SDS011;32811;52.382;5.270;2023-07-31T12:39:16;5.40;;;1.40;;
47053;SDS011;32811;52.382;5.270;2023-07-31T12:41:43;8.88;;;1.40;;
47053;SDS011;32811;52.382;5.270;2023-07-31T12:44:10;4.43;;;1.23;;
47053;SDS011;32811;52.382;5.270;2023-07-31T12:46:36;7.43;;;1.40;;
47053;SDS011;32811;52.382;5.270;2023-07-31T12:49:04;4.75;;;1.40;;
47053;SDS011;32811;52.382;5.270;2023-07-31T12:51:31;10.85;;;1.83;;
47053;SDS011;32811;52.382;5.270;2023-07-31T12:53:57;8.93;;;2.30;;
47053;SDS011;32811;52.382;5.270;2023-07-31T12:56:24;9.38;;;1.33;;
47053;SDS011;32811;52.382;5.270;2023-07-31T12:58:51;3.30;;;1.00;;
47053;SDS011;32811;52.382;5.270;2023-07-31T13:01:17;3.60;;;1.45;;
47053;SDS011;32811;52.382;5.270;2023-07-31T13:03:44;9.55;;;1.50;;
47053;SDS011;32811;52.382;5.270;2023-07-31T13:06:11;10.98;;;2.20;;
47053;SDS011;32811;52.382;5.270;2023-07-31T13:08:37;9.15;;;1.55;;
47053;SDS011;32811;52.382;5.270;2023-07-31T13:11:04;3.70;;;1.20;;
47053;SDS011;32811;52.382;5.270;2023-07-31T13:13:31;7.35;;;1.42;;
47053;SDS011;32811;52.382;5.270;2023-07-31T13:15:58;4.20;;;1.17;;
47053;SDS011;32811;52.382;5.270;2023-07-31T13:18:25;6.50;;;1.42;;
47053;SDS011;32811;52.382;5.270;2023-07-31T13:20:52;4.03;;;1.25;;
47053;SDS011;32811;52.382;5.270;2023-07-31T13:23:18;3.67;;;0.85;;
47053;SDS011;32811;52.382;5.270;2023-07-31T13:25:45;5.70;;;0.82;;
47053;SDS011;32811;52.382;5.270;2023-07-31T13:28:12;8.85;;;1.42;;
47053;SDS011;32811;52.382;5.270;2023-07-31T13:30:38;4.10;;;1.77;;
47053;SDS011;32811;52.382;5.270;2023-07-31T13:33:05;3.75;;;1.17;;
47053;SDS011;32811;52.382;5.270;2023-07-31T13:35:43;3.45;;;1.30;;
47053;SDS011;32811;52.382;5.270;2023-07-31T13:38:09;4.10;;;1.52;;
47053;SDS011;32811;52.382;5.270;2023-07-31T13:40:36;3.17;;;0.95;;
47053;SDS011;32811;52.382;5.270;2023-07-31T13:43:03;4.00;;;1.30;;
47053;SDS011;32811;52.382;5.270;2023-07-31T13:45:29;4.82;;;0.88;;
47053;SDS011;32811;52.382;5.270;2023-07-31T13:47:56;6.07;;;1.45;;
47053;SDS011;32811;52.382;5.270;2023-07-31T13:50:22;3.10;;;1.20;;
47053;SDS011;32811;52.382;5.270;2023-07-31T13:52:49;4.28;;;1.17;;
47053;SDS011;32811;52.382;5.270;2023-07-31T13:55:16;4.47;;;1.15;;
47053;SDS011;32811;52.382;5.270;2023-07-31T13:57:42;3.55;;;0.77;;
47053;SDS011;32811;52.382;5.270;2023-07-31T14:00:09;5.60;;;1.40;;
47053;SDS011;32811;52.382;5.270;2023-07-31T14:02:36;4.32;;;1.10;;
47053;SDS011;32811;52.382;5.270;2023-07-31T14:05:03;6.40;;;1.08;;
47053;SDS011;32811;52.382;5.270;2023-07-31T14:07:31;6.88;;;1.20;;
47053;SDS011;32811;52.382;5.270;2023-07-31T14:09:58;4.20;;;1.10;;
47053;SDS011;32811;52.382;5.270;2023-07-31T14:12:25;2.28;;;0.90;;
47053;SDS011;32811;52.382;5.270;2023-07-31T14:15:08;3.05;;;0.80;;
47053;SDS011;32811;52.382;5.270;2023-07-31T14:17:35;3.50;;;0.90;;
47053;SDS011;32811;52.382;5.270;2023-07-31T14:20:02;4.40;;;1.00;;
47053;SDS011;32811;52.382;5.270;2023-07-31T14:22:30;2.85;;;0.88;;
47053;SDS011;32811;52.382;5.270;2023-07-31T14:24:57;5.68;;;0.80;;
47053;SDS011;32811;52.382;5.270;2023-07-31T14:27:24;2.85;;;0.70;;
47053;SDS011;32811;52.382;5.270;2023-07-31T14:29:50;2.88;;;0.70;;
47053;SDS011;32811;52.382;5.270;2023-07-31T14:32:17;2.80;;;0.70;;
47053;SDS011;32811;52.382;5.270;2023-07-31T14:34:43;1.55;;;0.50;;
47053;SDS011;32811;52.382;5.270;2023-07-31T14:37:10;1.25;;;0.43;;
47053;SDS011;32811;52.382;5.270;2023-07-31T14:39:37;4.63;;;0.65;;
47053;SDS011;32811;52.382;5.270;2023-07-31T14:42:06;1.23;;;0.35;;
47053;SDS011;32811;52.382;5.270;2023-07-31T14:44:33;1.13;;;0.52;;
47053;SDS011;32811;52.382;5.270;2023-07-31T14:46:59;1.52;;;0.60;;
47053;SDS011;32811;52.382;5.270;2023-07-31T14:49:26;1.98;;;0.52;;
47053;SDS011;32811;52.382;5.270;2023-07-31T14:51:55;7.53;;;1.27;;
47053;SDS011;32811;52.382;5.270;2023-07-31T14:54:22;3.28;;;0.70;;
47053;SDS011;32811;52.382;5.270;2023-07-31T14:56:49;2.70;;;0.70;;
47053;SDS011;32811;52.382;5.270;2023-07-31T14:59:15;2.70;;;1.13;;
47053;SDS011;32811;52.382;5.270;2023-07-31T15:01:42;7.28;;;1.67;;